sensor_id;sensor_type;location;lat;lon;timestamp;pressure;altitude;pressure_sealevel;temperature;humidity
23616;BME280;11985;49.404;7.734;2022-10-31T00:00:27;97759.81;;;10.37;92.36
23616;BME280;11985;49.404;7.734;2022-10-31T00:02:29;97752.13;;;10.35;92.38
23616;BME280;11985;49.404;7.734;2022-10-31T00:04:30;97753.94;;;10.35;92.46
23616;BME280;11985;49.404;7.734;2022-10-31T00:06:32;97753.94;;;10.35;92.54
23616;BME280;11985;49.404;7.734;2022-10-31T00:08:35;97758.41;;;10.34;92.60
23616;BME280;11985;49.404;7.734;2022-10-31T00:10:37;97758.41;;;10.34;92.58
23616;BME280;11985;49.404;7.734;2022-10-31T00:12:39;97766.28;;;10.34;92.76
23616;BME280;11985;49.404;7.734;2022-10-31T00:14:42;97760.38;;;10.32;92.73
23616;BME280;11985;49.404;7.734;2022-10-31T00:16:43;97766.66;;;10.31;93.11
23616;BME280;11985;49.404;7.734;2022-10-31T00:18:48;97767.66;;;10.30;93.20
23616;BME280;11985;49.404;7.734;2022-10-31T00:20:58;97761.78;;;10.28;92.91
23616;BME280;11985;49.404;7.734;2022-10-31T00:23:00;97756.69;;;10.26;92.90
23616;BME280;11985;49.404;7.734;2022-10-31T00:25:02;97760.53;;;10.24;93.25
23616;BME280;11985;49.404;7.734;2022-10-31T00:27:04;97758.06;;;10.22;92.99
23616;BME280;11985;49.404;7.734;2022-10-31T00:29:05;97756.63;;;10.20;93.16
23616;BME280;11985;49.404;7.734;2022-10-31T00:31:09;97758.66;;;10.18;93.23
23616;BME280;11985;49.404;7.734;2022-10-31T00:33:11;97756.00;;;10.18;93.44
23616;BME280;11985;49.404;7.734;2022-10-31T00:35:13;97751.94;;;10.15;93.46
23616;BME280;11985;49.404;7.734;2022-10-31T00:37:14;97756.56;;;10.13;93.55
23616;BME280;11985;49.404;7.734;2022-10-31T00:39:16;97759.78;;;10.09;93.45
23616;BME280;11985;49.404;7.734;2022-10-31T00:41:17;97758.91;;;10.01;93.38
23616;BME280;11985;49.404;7.734;2022-10-31T00:43:19;97757.66;;;9.97;93.40
23616;BME280;11985;49.404;7.734;2022-10-31T00:45:20;97761.31;;;9.96;93.53
23616;BME280;11985;49.404;7.734;2022-10-31T00:47:23;97762.91;;;9.97;93.86
23616;BME280;11985;49.404;7.734;2022-10-31T00:49:25;97757.03;;;9.95;93.81
23616;BME280;11985;49.404;7.734;2022-10-31T00:51:26;97763.31;;;9.94;94.02
23616;BME280;11985;49.404;7.734;2022-10-31T00:53:28;97763.31;;;9.94;94.15
23616;BME280;11985;49.404;7.734;2022-10-31T00:55:29;97757.03;;;9.95;94.18
23616;BME280;11985;49.404;7.734;2022-10-31T00:57:31;97759.03;;;9.93;94.36
23616;BME280;11985;49.404;7.734;2022-10-31T00:59:32;97754.78;;;9.92;94.40
23616;BME280;11985;49.404;7.734;2022-10-31T01:01:34;97748.72;;;9.92;94.45
23616;BME280;11985;49.404;7.734;2022-10-31T01:03:37;97757.59;;;9.91;94.63
23616;BME280;11985;49.404;7.734;2022-10-31T01:05:40;97750.88;;;9.88;94.90
23616;BME280;11985;49.404;7.734;2022-10-31T01:07:41;97746.63;;;9.87;95.06
23616;BME280;11985;49.404;7.734;2022-10-31T01:09:43;97748.25;;;9.88;95.01
23616;BME280;11985;49.404;7.734;2022-10-31T01:11:45;97743.41;;;9.85;95.25
23616;BME280;11985;49.404;7.734;2022-10-31T01:13:47;97749.47;;;9.86;95.18
23616;BME280;11985;49.404;7.734;2022-10-31T01:15:53;97743.00;;;9.88;95.47
23616;BME280;11985;49.404;7.734;2022-10-31T01:17:55;97745.00;;;9.86;95.47
23616;BME280;11985;49.404;7.734;2022-10-31T01:19:58;97750.88;;;9.88;95.63
23616;BME280;11985;49.404;7.734;2022-10-31T01:21:59;97749.91;;;9.89;95.54
23616;BME280;11985;49.404;7.734;2022-10-31T01:24:01;97740.19;;;9.90;95.77
23616;BME280;11985;49.404;7.734;2022-10-31T01:26:07;97741.00;;;9.90;95.92
23616;BME280;11985;49.404;7.734;2022-10-31T01:28:09;97744.25;;;9.92;95.94
23616;BME280;11985;49.404;7.734;2022-10-31T01:30:11;97744.44;;;9.91;96.12
23616;BME280;11985;49.404;7.734;2022-10-31T01:32:13;97744.66;;;9.89;95.88
23616;BME280;11985;49.404;7.734;2022-10-31T01:34:16;97750.06;;;9.88;95.68
23616;BME280;11985;49.404;7.734;2022-10-31T01:36:21;97739.38;;;9.89;95.96
23616;BME280;11985;49.404;7.734;2022-10-31T01:38:23;97750.72;;;9.90;95.99
23616;BME280;11985;49.404;7.734;2022-10-31T01:40:29;97753.91;;;9.85;95.78
23616;BME280;11985;49.404;7.734;2022-10-31T01:42:30;97752.09;;;9.86;95.98
23616;BME280;11985;49.404;7.734;2022-10-31T01:44:51;97745.22;;;9.85;95.84
23616;BME280;11985;49.404;7.734;2022-10-31T01:46:55;97745.41;;;9.83;95.88
23616;BME280;11985;49.404;7.734;2022-10-31T01:49:00;97747.84;;;9.85;95.97
23616;BME280;11985;49.404;7.734;2022-10-31T01:51:03;97736.50;;;9.84;95.72
23616;BME280;11985;49.404;7.734;2022-10-31T01:53:07;97744.41;;;9.84;96.06
23616;BME280;11985;49.404;7.734;2022-10-31T01:55:13;97747.03;;;9.84;96.08
23616;BME280;11985;49.404;7.734;2022-10-31T01:57:18;97744.41;;;9.84;96.22
23616;BME280;11985;49.404;7.734;2022-10-31T01:59:21;97748.03;;;9.83;96.02
23616;BME280;11985;49.404;7.734;2022-10-31T02:01:24;97741.78;;;9.84;96.35
23616;BME280;11985;49.404;7.734;2022-10-31T02:03:30;97746.22;;;9.84;96.33
23616;BME280;11985;49.404;7.734;2022-10-31T02:05:33;97746.22;;;9.84;96.28
23616;BME280;11985;49.404;7.734;2022-10-31T02:07:38;97745.41;;;9.83;96.47
23616;BME280;11985;49.404;7.734;2022-10-31T02:09:43;97749.66;;;9.84;96.45
23616;BME280;11985;49.404;7.734;2022-10-31T02:11:48;97749.81;;;9.83;96.61
23616;BME280;11985;49.404;7.734;2022-10-31T02:13:50;97742.94;;;9.82;96.46
23616;BME280;11985;49.404;7.734;2022-10-31T02:15:53;97739.50;;;9.81;96.63
23616;BME280;11985;49.404;7.734;2022-10-31T02:17:55;97742.94;;;9.82;96.81
23616;BME280;11985;49.404;7.734;2022-10-31T02:19:59;97739.50;;;9.81;96.85
23616;BME280;11985;49.404;7.734;2022-10-31T02:22:09;97730.81;;;9.81;96.79
23616;BME280;11985;49.404;7.734;2022-10-31T02:26:54;97734.88;;;9.83;97.29
23616;BME280;11985;49.404;7.734;2022-10-31T02:29:23;97728.63;;;9.84;97.32
23616;BME280;11985;49.404;7.734;2022-10-31T02:31:36;97729.44;;;9.85;97.58
23616;BME280;11985;49.404;7.734;2022-10-31T02:33:44;97720.31;;;9.87;97.69
23616;BME280;11985;49.404;7.734;2022-10-31T02:35:57;97711.63;;;9.87;97.86
23616;BME280;11985;49.404;7.734;2022-10-31T02:38:10;97717.69;;;9.87;98.14
23616;BME280;11985;49.404;7.734;2022-10-31T02:40:18;97717.53;;;9.89;98.36
23616;BME280;11985;49.404;7.734;2022-10-31T02:42:28;97718.34;;;9.89;98.33
23616;BME280;11985;49.404;7.734;2022-10-31T02:44:37;97709.44;;;9.90;98.37
23616;BME280;11985;49.404;7.734;2022-10-31T02:46:44;97706.59;;;9.92;98.41
23616;BME280;11985;49.404;7.734;2022-10-31T02:48:51;97707.00;;;9.89;98.50
23616;BME280;11985;49.404;7.734;2022-10-31T02:50:57;97710.44;;;9.89;98.52
23616;BME280;11985;49.404;7.734;2022-10-31T02:53:00;97705.19;;;9.89;98.51
23616;BME280;11985;49.404;7.734;2022-10-31T02:55:10;97703.38;;;9.90;98.63
23616;BME280;11985;49.404;7.734;2022-10-31T02:57:13;97706.59;;;9.92;98.70
23616;BME280;11985;49.404;7.734;2022-10-31T02:59:15;97707.41;;;9.92;98.72
23616;BME280;11985;49.404;7.734;2022-10-31T03:01:25;97694.47;;;9.91;98.58
23616;BME280;11985;49.404;7.734;2022-10-31T03:03:33;97699.69;;;9.84;98.62
23616;BME280;11985;49.404;7.734;2022-10-31T03:05:50;97698.78;;;9.77;98.47
23616;BME280;11985;49.404;7.734;2022-10-31T03:08:02;97700.81;;;9.75;98.56
23616;BME280;11985;49.404;7.734;2022-10-31T03:10:14;97704.06;;;9.77;98.74
23616;BME280;11985;49.404;7.734;2022-10-31T03:12:25;97708.13;;;9.79;98.70
23616;BME280;11985;49.404;7.734;2022-10-31T03:14:36;97703.69;;;9.80;98.85
23616;BME280;11985;49.404;7.734;2022-10-31T03:16:45;97713.84;;;9.83;98.82
23616;BME280;11985;49.404;7.734;2022-10-31T03:18:51;97711.81;;;9.85;99.07
23616;BME280;11985;49.404;7.734;2022-10-31T03:20:58;97711.00;;;9.85;99.15
23616;BME280;11985;49.404;7.734;2022-10-31T03:23:02;97706.56;;;9.85;98.96
23616;BME280;11985;49.404;7.734;2022-10-31T03:25:06;97708.19;;;9.86;99.03
23616;BME280;11985;49.404;7.734;2022-10-31T03:27:10;97708.19;;;9.86;99.07
23616;BME280;11985;49.404;7.734;2022-10-31T03:29:15;97705.75;;;9.85;99.14
23616;BME280;11985;49.404;7.734;2022-10-31T03:31:21;97700.50;;;9.85;99.03
23616;BME280;11985;49.404;7.734;2022-10-31T03:33:27;97704.94;;;9.84;99.07
23616;BME280;11985;49.404;7.734;2022-10-31T03:35:32;97711.13;;;9.76;98.90
23616;BME280;11985;49.404;7.734;2022-10-31T03:37:39;97708.25;;;9.71;98.75
23616;BME280;11985;49.404;7.734;2022-10-31T03:39:43;97705.41;;;9.66;98.70
23616;BME280;11985;49.404;7.734;2022-10-31T03:41:49;97704.94;;;9.63;98.64
23616;BME280;11985;49.404;7.734;2022-10-31T03:43:58;97705.50;;;9.58;98.83
23616;BME280;11985;49.404;7.734;2022-10-31T03:46:02;97706.72;;;9.56;98.68
23616;BME280;11985;49.404;7.734;2022-10-31T03:48:05;97709.97;;;9.58;98.90
23616;BME280;11985;49.404;7.734;2022-10-31T03:50:07;97705.50;;;9.58;99.03
23616;BME280;11985;49.404;7.734;2022-10-31T03:52:15;97704.69;;;9.58;99.16
23616;BME280;11985;49.404;7.734;2022-10-31T03:54:23;97704.25;;;9.54;98.93
23616;BME280;11985;49.404;7.734;2022-10-31T03:56:29;97707.28;;;9.51;99.03
23616;BME280;11985;49.404;7.734;2022-10-31T03:58:37;97706.47;;;9.50;98.95
23616;BME280;11985;49.404;7.734;2022-10-31T04:00:43;97709.84;;;9.44;98.81
23616;BME280;11985;49.404;7.734;2022-10-31T04:02:50;97712.63;;;9.43;98.71
23616;BME280;11985;49.404;7.734;2022-10-31T04:04:55;97704.94;;;9.41;98.81
23616;BME280;11985;49.404;7.734;2022-10-31T04:06:58;97708.78;;;9.39;98.90
23616;BME280;11985;49.404;7.734;2022-10-31T04:09:04;97709.75;;;9.38;98.74
23616;BME280;11985;49.404;7.734;2022-10-31T04:11:08;97711.56;;;9.37;98.57
23616;BME280;11985;49.404;7.734;2022-10-31T04:13:14;97710.97;;;9.35;98.70
23616;BME280;11985;49.404;7.734;2022-10-31T04:15:17;97707.72;;;9.33;98.74
23616;BME280;11985;49.404;7.734;2022-10-31T04:17:21;97704.44;;;9.31;98.83
23616;BME280;11985;49.404;7.734;2022-10-31T04:19:24;97704.81;;;9.28;98.80
23616;BME280;11985;49.404;7.734;2022-10-31T04:21:30;97710.09;;;9.28;98.68
23616;BME280;11985;49.404;7.734;2022-10-31T04:23:32;97714.53;;;9.28;98.87
23616;BME280;11985;49.404;7.734;2022-10-31T04:25:35;97705.81;;;9.27;98.79
23616;BME280;11985;49.404;7.734;2022-10-31T04:27:37;97708.25;;;9.29;99.00
23616;BME280;11985;49.404;7.734;2022-10-31T04:29:38;97704.19;;;9.26;99.09
23616;BME280;11985;49.404;7.734;2022-10-31T04:31:40;97703.38;;;9.25;98.96
23616;BME280;11985;49.404;7.734;2022-10-31T04:33:41;97696.50;;;9.24;99.06
23616;BME280;11985;49.404;7.734;2022-10-31T04:35:43;97691.22;;;9.24;99.33
23616;BME280;11985;49.404;7.734;2022-10-31T04:37:44;97690.41;;;9.24;99.33
23616;BME280;11985;49.404;7.734;2022-10-31T04:39:46;97693.25;;;9.22;99.09
23616;BME280;11985;49.404;7.734;2022-10-31T04:41:49;97690.16;;;9.19;99.15
23616;BME280;11985;49.404;7.734;2022-10-31T04:43:50;97692.19;;;9.17;99.52
23616;BME280;11985;49.404;7.734;2022-10-31T04:45:52;97694.97;;;9.15;99.54
23616;BME280;11985;49.404;7.734;2022-10-31T04:47:53;97694.00;;;9.16;99.61
23616;BME280;11985;49.404;7.734;2022-10-31T04:49:55;97696.63;;;9.16;99.88
23616;BME280;11985;49.404;7.734;2022-10-31T04:51:56;97693.00;;;9.17;99.77
23616;BME280;11985;49.404;7.734;2022-10-31T04:53:58;97692.03;;;9.25;100.00
23616;BME280;11985;49.404;7.734;2022-10-31T04:55:59;97694.72;;;9.32;100.00
23616;BME280;11985;49.404;7.734;2022-10-31T04:58:02;97687.34;;;9.42;100.00
23616;BME280;11985;49.404;7.734;2022-10-31T05:00:04;97687.88;;;9.52;100.00
23616;BME280;11985;49.404;7.734;2022-10-31T05:02:06;97692.97;;;9.60;99.85
23616;BME280;11985;49.404;7.734;2022-10-31T05:04:08;97684.16;;;9.68;99.59
23616;BME280;11985;49.404;7.734;2022-10-31T05:06:09;97682.91;;;9.64;98.85
23616;BME280;11985;49.404;7.734;2022-10-31T05:08:11;97682.91;;;9.64;98.28
23616;BME280;11985;49.404;7.734;2022-10-31T05:10:14;97682.53;;;9.67;98.10
23616;BME280;11985;49.404;7.734;2022-10-31T05:12:16;97681.53;;;9.68;97.89
23616;BME280;11985;49.404;7.734;2022-10-31T05:14:19;97676.28;;;9.68;97.55
23616;BME280;11985;49.404;7.734;2022-10-31T05:16:20;97682.53;;;9.67;97.53
23616;BME280;11985;49.404;7.734;2022-10-31T05:18:22;97674.81;;;9.65;97.49
23616;BME280;11985;49.404;7.734;2022-10-31T05:20:24;97676.84;;;9.63;97.27
23616;BME280;11985;49.404;7.734;2022-10-31T05:22:28;97679.66;;;9.62;97.35
23616;BME280;11985;49.404;7.734;2022-10-31T05:24:29;97676.59;;;9.58;97.38
23616;BME280;11985;49.404;7.734;2022-10-31T05:26:31;97673.34;;;9.56;97.50
23616;BME280;11985;49.404;7.734;2022-10-31T05:28:33;97674.53;;;9.53;97.48
23616;BME280;11985;49.404;7.734;2022-10-31T05:30:36;97672.09;;;9.52;97.48
23616;BME280;11985;49.404;7.734;2022-10-31T05:32:38;97667.03;;;9.50;97.81
23616;BME280;11985;49.404;7.734;2022-10-31T05:34:39;97668.19;;;9.48;97.61
23616;BME280;11985;49.404;7.734;2022-10-31T05:36:41;97660.88;;;9.43;97.90
23616;BME280;11985;49.404;7.734;2022-10-31T05:38:42;97661.63;;;9.37;98.08
23616;BME280;11985;49.404;7.734;2022-10-31T05:40:44;97664.00;;;9.32;98.12
23616;BME280;11985;49.404;7.734;2022-10-31T05:42:46;97647.63;;;9.30;98.47
23616;BME280;11985;49.404;7.734;2022-10-31T05:44:48;97646.00;;;9.29;98.76
23616;BME280;11985;49.404;7.734;2022-10-31T05:46:50;97651.88;;;9.31;99.13
23616;BME280;11985;49.404;7.734;2022-10-31T05:48:52;97638.97;;;9.36;99.25
23616;BME280;11985;49.404;7.734;2022-10-31T05:50:53;97647.72;;;9.43;99.59
23616;BME280;11985;49.404;7.734;2022-10-31T05:52:56;97653.06;;;9.50;99.53
23616;BME280;11985;49.404;7.734;2022-10-31T05:54:58;97648.06;;;9.55;99.60
23616;BME280;11985;49.404;7.734;2022-10-31T05:56:59;97641.84;;;9.63;99.59
23616;BME280;11985;49.404;7.734;2022-10-31T05:59:01;97642.28;;;9.66;99.41
23616;BME280;11985;49.404;7.734;2022-10-31T06:01:02;97650.97;;;9.67;99.01
23616;BME280;11985;49.404;7.734;2022-10-31T06:03:07;97644.47;;;9.63;98.49
23616;BME280;11985;49.404;7.734;2022-10-31T06:05:09;97639.53;;;9.53;98.19
23616;BME280;11985;49.404;7.734;2022-10-31T06:07:10;97645.94;;;9.44;97.76
23616;BME280;11985;49.404;7.734;2022-10-31T06:09:12;97650.75;;;9.40;97.61
23616;BME280;11985;49.404;7.734;2022-10-31T06:11:14;97645.84;;;9.37;97.62
23616;BME280;11985;49.404;7.734;2022-10-31T06:13:15;97641.41;;;9.38;98.07
23616;BME280;11985;49.404;7.734;2022-10-31T06:15:17;97636.16;;;9.38;98.22
23616;BME280;11985;49.404;7.734;2022-10-31T06:17:19;97641.84;;;9.41;98.22
23616;BME280;11985;49.404;7.734;2022-10-31T06:19:22;97640.69;;;9.44;98.78
23616;BME280;11985;49.404;7.734;2022-10-31T06:21:23;97644.38;;;9.49;98.77
23616;BME280;11985;49.404;7.734;2022-10-31T06:23:25;97642.78;;;9.55;98.76
23616;BME280;11985;49.404;7.734;2022-10-31T06:25:29;97644.22;;;9.58;98.79
23616;BME280;11985;49.404;7.734;2022-10-31T06:27:30;97646.66;;;9.59;98.56
23616;BME280;11985;49.404;7.734;2022-10-31T06:29:32;97648.09;;;9.62;98.43
23616;BME280;11985;49.404;7.734;2022-10-31T06:31:33;97653.94;;;9.57;98.05
23616;BME280;11985;49.404;7.734;2022-10-31T06:33:35;97647.22;;;9.55;97.80
23616;BME280;11985;49.404;7.734;2022-10-31T06:35:38;97652.47;;;9.55;97.71
23616;BME280;11985;49.404;7.734;2022-10-31T06:37:39;97645.22;;;9.57;97.88
23616;BME280;11985;49.404;7.734;2022-10-31T06:39:41;97648.06;;;9.55;97.89
23616;BME280;11985;49.404;7.734;2022-10-31T06:41:42;97647.22;;;9.55;98.31
23616;BME280;11985;49.404;7.734;2022-10-31T06:43:46;97646.25;;;9.56;98.02
23616;BME280;11985;49.404;7.734;2022-10-31T06:45:49;97647.22;;;9.55;97.95
23616;BME280;11985;49.404;7.734;2022-10-31T06:47:51;97641.34;;;9.52;98.28
23616;BME280;11985;49.404;7.734;2022-10-31T06:49:53;97637.09;;;9.51;98.67
23616;BME280;11985;49.404;7.734;2022-10-31T06:51:56;97646.00;;;9.50;98.51
23616;BME280;11985;49.404;7.734;2022-10-31T06:53:57;97644.38;;;9.49;98.78
23616;BME280;11985;49.404;7.734;2022-10-31T06:55:59;97647.81;;;9.50;98.98
23616;BME280;11985;49.404;7.734;2022-10-31T06:58:00;97645.19;;;9.50;99.22
23616;BME280;11985;49.404;7.734;2022-10-31T07:00:02;97651.25;;;9.50;99.55
23616;BME280;11985;49.404;7.734;2022-10-31T07:02:04;97650.03;;;9.53;99.63
23616;BME280;11985;49.404;7.734;2022-10-31T07:04:06;97647.22;;;9.55;99.94
23616;BME280;11985;49.404;7.734;2022-10-31T07:06:07;97652.09;;;9.58;100.00
23616;BME280;11985;49.404;7.734;2022-10-31T07:08:12;97647.09;;;9.63;100.00
23616;BME280;11985;49.404;7.734;2022-10-31T07:10:14;97652.19;;;9.71;100.00
23616;BME280;11985;49.404;7.734;2022-10-31T07:12:15;97648.25;;;9.82;100.00
23616;BME280;11985;49.404;7.734;2022-10-31T07:14:17;97643.91;;;9.95;100.00
23616;BME280;11985;49.404;7.734;2022-10-31T07:16:19;97652.06;;;10.07;100.00
23616;BME280;11985;49.404;7.734;2022-10-31T07:18:21;97642.81;;;10.18;100.00
23616;BME280;11985;49.404;7.734;2022-10-31T07:20:22;97655.84;;;10.26;100.00
23616;BME280;11985;49.404;7.734;2022-10-31T07:22:23;97655.06;;;10.32;100.00
23616;BME280;11985;49.404;7.734;2022-10-31T07:24:26;97657.56;;;10.40;100.00
23616;BME280;11985;49.404;7.734;2022-10-31T07:26:28;97658.41;;;10.47;100.00
23616;BME280;11985;49.404;7.734;2022-10-31T07:28:29;97663.28;;;10.50;100.00
23616;BME280;11985;49.404;7.734;2022-10-31T07:30:31;97659.25;;;10.54;99.79
23616;BME280;11985;49.404;7.734;2022-10-31T07:32:39;97665.75;;;10.58;99.85
23616;BME280;11985;49.404;7.734;2022-10-31T07:34:40;97660.91;;;10.62;99.60
23616;BME280;11985;49.404;7.734;2022-10-31T07:36:42;97662.97;;;10.67;99.56
23616;BME280;11985;49.404;7.734;2022-10-31T07:38:44;97665.81;;;10.72;99.54
23616;BME280;11985;49.404;7.734;2022-10-31T07:40:50;97667.84;;;10.76;99.65
23616;BME280;11985;49.404;7.734;2022-10-31T07:42:53;97667.25;;;10.81;99.54
23616;BME280;11985;49.404;7.734;2022-10-31T07:44:54;97664.84;;;10.86;99.46
23616;BME280;11985;49.404;7.734;2022-10-31T07:46:56;97659.78;;;10.91;99.37
23616;BME280;11985;49.404;7.734;2022-10-31T07:48:57;97655.75;;;10.95;99.38
23616;BME280;11985;49.404;7.734;2022-10-31T07:50:59;97654.97;;;11.01;99.47
23616;BME280;11985;49.404;7.734;2022-10-31T07:53:02;97653.34;;;11.07;99.38
23616;BME280;11985;49.404;7.734;2022-10-31T07:55:05;97654.38;;;11.13;99.58
23616;BME280;11985;49.404;7.734;2022-10-31T07:57:08;97654.59;;;11.18;99.54
23616;BME280;11985;49.404;7.734;2022-10-31T07:59:10;97659.28;;;11.22;99.75
23616;BME280;11985;49.404;7.734;2022-10-31T08:01:11;97658.66;;;11.27;99.80
23616;BME280;11985;49.404;7.734;2022-10-31T08:03:14;97661.50;;;11.32;100.00
23616;BME280;11985;49.404;7.734;2022-10-31T08:05:16;97669.03;;;11.35;100.00
23616;BME280;11985;49.404;7.734;2022-10-31T08:07:17;97665.59;;;11.41;99.96
23616;BME280;11985;49.404;7.734;2022-10-31T08:09:19;97667.41;;;11.47;100.00
23616;BME280;11985;49.404;7.734;2022-10-31T08:11:21;97667.63;;;11.52;100.00
23616;BME280;11985;49.404;7.734;2022-10-31T08:13:24;97665.81;;;11.59;100.00
23616;BME280;11985;49.404;7.734;2022-10-31T08:15:26;97665.63;;;11.68;100.00
23616;BME280;11985;49.404;7.734;2022-10-31T08:17:29;97659.53;;;11.74;100.00
23616;BME280;11985;49.404;7.734;2022-10-31T08:19:31;97664.00;;;11.80;100.00
23616;BME280;11985;49.404;7.734;2022-10-31T08:21:32;97664.44;;;11.90;100.00
23616;BME280;11985;49.404;7.734;2022-10-31T08:23:34;97666.44;;;12.01;100.00
23616;BME280;11985;49.404;7.734;2022-10-31T08:25:36;97668.66;;;12.18;100.00
23616;BME280;11985;49.404;7.734;2022-10-31T08:27:37;97668.22;;;12.34;100.00
23616;BME280;11985;49.404;7.734;2022-10-31T08:29:40;97665.50;;;12.54;100.00
23616;BME280;11985;49.404;7.734;2022-10-31T08:31:42;97659.78;;;12.70;99.94
23616;BME280;11985;49.404;7.734;2022-10-31T08:33:44;97665.03;;;12.83;99.47
23616;BME280;11985;49.404;7.734;2022-10-31T08:35:45;97657.66;;;12.92;98.93
23616;BME280;11985;49.404;7.734;2022-10-31T08:37:52;97652.72;;;13.02;98.62
23616;BME280;11985;49.404;7.734;2022-10-31T08:39:53;97656.13;;;13.09;98.21
23616;BME280;11985;49.404;7.734;2022-10-31T08:41:55;97662.41;;;13.15;97.85
23616;BME280;11985;49.404;7.734;2022-10-31T08:43:56;97656.69;;;13.25;97.68
23616;BME280;11985;49.404;7.734;2022-10-31T08:45:59;97661.53;;;13.34;97.47
23616;BME280;11985;49.404;7.734;2022-10-31T08:48:03;97656.34;;;13.46;97.29
23616;BME280;11985;49.404;7.734;2022-10-31T08:50:05;97652.25;;;13.50;97.09
23616;BME280;11985;49.404;7.734;2022-10-31T08:52:07;97647.13;;;13.55;96.59
23616;BME280;11985;49.404;7.734;2022-10-31T08:54:08;97649.13;;;13.60;96.16
23616;BME280;11985;49.404;7.734;2022-10-31T08:56:10;97645.25;;;13.62;96.05
23616;BME280;11985;49.404;7.734;2022-10-31T08:58:13;97650.69;;;13.67;95.88
23616;BME280;11985;49.404;7.734;2022-10-31T09:00:16;97646.59;;;13.71;95.96
23616;BME280;11985;49.404;7.734;2022-10-31T09:02:18;97644.94;;;13.77;95.96
23616;BME280;11985;49.404;7.734;2022-10-31T09:04:20;97647.72;;;13.82;96.00
23616;BME280;11985;49.404;7.734;2022-10-31T09:06:22;97648.09;;;13.86;95.65
23616;BME280;11985;49.404;7.734;2022-10-31T09:08:23;97645.84;;;13.89;95.51
23616;BME280;11985;49.404;7.734;2022-10-31T09:10:26;97642.31;;;13.95;95.31
23616;BME280;11985;49.404;7.734;2022-10-31T09:12:28;97643.44;;;14.06;95.23
23616;BME280;11985;49.404;7.734;2022-10-31T09:14:30;97634.78;;;14.17;94.89
23616;BME280;11985;49.404;7.734;2022-10-31T09:16:34;97630.94;;;14.32;94.62
23616;BME280;11985;49.404;7.734;2022-10-31T09:18:37;97627.13;;;14.46;93.93
23616;BME280;11985;49.404;7.734;2022-10-31T09:20:40;97625.97;;;14.60;93.16
23616;BME280;11985;49.404;7.734;2022-10-31T09:22:41;97627.66;;;14.73;92.41
23616;BME280;11985;49.404;7.734;2022-10-31T09:24:43;97627.94;;;14.83;91.61
23616;BME280;11985;49.404;7.734;2022-10-31T09:26:44;97618.06;;;14.90;91.21
23616;BME280;11985;49.404;7.734;2022-10-31T09:28:47;97622.44;;;14.96;90.78
23616;BME280;11985;49.404;7.734;2022-10-31T09:30:50;97633.78;;;15.03;90.46
23616;BME280;11985;49.404;7.734;2022-10-31T09:32:54;97625.16;;;15.08;89.68
23616;BME280;11985;49.404;7.734;2022-10-31T09:34:57;97621.03;;;15.12;89.45
23616;BME280;11985;49.404;7.734;2022-10-31T09:37:01;97616.88;;;15.16;88.72
23616;BME280;11985;49.404;7.734;2022-10-31T09:39:03;97624.97;;;15.21;88.04
23616;BME280;11985;49.404;7.734;2022-10-31T09:41:14;97617.13;;;15.26;87.78
23616;BME280;11985;49.404;7.734;2022-10-31T09:43:25;97620.94;;;15.30;87.35
23616;BME280;11985;49.404;7.734;2022-10-31T09:45:32;97625.34;;;15.37;87.30
23616;BME280;11985;49.404;7.734;2022-10-31T09:47:43;97614.41;;;15.45;87.09
23616;BME280;11985;49.404;7.734;2022-10-31T09:50:02;97612.22;;;15.53;86.65
23616;BME280;11985;49.404;7.734;2022-10-31T09:52:13;97604.31;;;15.65;86.44
23616;BME280;11985;49.404;7.734;2022-10-31T09:54:20;97611.94;;;15.73;86.33
23616;BME280;11985;49.404;7.734;2022-10-31T09:56:26;97604.22;;;15.83;86.06
23616;BME280;11985;49.404;7.734;2022-10-31T09:58:30;97605.13;;;15.89;85.46
23616;BME280;11985;49.404;7.734;2022-10-31T10:00:34;97606.63;;;15.97;85.16
23616;BME280;11985;49.404;7.734;2022-10-31T10:02:38;97595.66;;;16.05;85.53
23616;BME280;11985;49.404;7.734;2022-10-31T10:04:43;97594.72;;;16.11;85.46
23616;BME280;11985;49.404;7.734;2022-10-31T10:06:49;97598.06;;;16.18;84.02
23616;BME280;11985;49.404;7.734;2022-10-31T10:08:53;97593.53;;;16.30;83.23
23616;BME280;11985;49.404;7.734;2022-10-31T10:10:55;97594.41;;;16.48;82.34
23616;BME280;11985;49.404;7.734;2022-10-31T10:13:29;97591.75;;;16.71;81.23
23616;BME280;11985;49.404;7.734;2022-10-31T10:15:42;97592.44;;;16.95;80.90
23616;BME280;11985;49.404;7.734;2022-10-31T10:17:56;97585.06;;;17.14;78.70
23616;BME280;11985;49.404;7.734;2022-10-31T10:20:17;97589.34;;;17.32;79.09
23616;BME280;11985;49.404;7.734;2022-10-31T10:22:30;97595.09;;;17.40;78.97
23616;BME280;11985;49.404;7.734;2022-10-31T10:24:55;97591.56;;;17.52;77.51
23616;BME280;11985;49.404;7.734;2022-10-31T10:27:06;97590.59;;;17.58;77.57
23616;BME280;11985;49.404;7.734;2022-10-31T10:29:29;97591.13;;;17.60;75.68
23616;BME280;11985;49.404;7.734;2022-10-31T10:31:36;97593.41;;;17.68;74.20
23616;BME280;11985;49.404;7.734;2022-10-31T10:33:40;97597.44;;;17.71;72.87
23616;BME280;11985;49.404;7.734;2022-10-31T10:35:47;97603.38;;;17.73;72.55
23616;BME280;11985;49.404;7.734;2022-10-31T10:37:54;97600.78;;;17.78;72.21
23616;BME280;11985;49.404;7.734;2022-10-31T10:40:06;97604.25;;;17.78;72.48
23616;BME280;11985;49.404;7.734;2022-10-31T10:42:12;97602.38;;;17.62;72.31
23616;BME280;11985;49.404;7.734;2022-10-31T10:44:31;97591.22;;;17.31;72.05
23616;BME280;11985;49.404;7.734;2022-10-31T10:46:55;97597.31;;;17.15;72.66
23616;BME280;11985;49.404;7.734;2022-10-31T10:49:18;97595.16;;;17.12;73.14
23616;BME280;11985;49.404;7.734;2022-10-31T10:51:22;97597.81;;;17.12;73.70
23616;BME280;11985;49.404;7.734;2022-10-31T10:53:42;97591.34;;;17.08;73.80
23616;BME280;11985;49.404;7.734;2022-10-31T10:56:04;97583.25;;;17.03;73.95
23616;BME280;11985;49.404;7.734;2022-10-31T10:58:11;97579.66;;;17.09;74.32
23616;BME280;11985;49.404;7.734;2022-10-31T11:00:15;97568.28;;;17.13;74.43
23616;BME280;11985;49.404;7.734;2022-10-31T11:02:19;97562.59;;;17.22;74.13
23616;BME280;11985;49.404;7.734;2022-10-31T11:04:29;97564.03;;;17.29;74.05